Time;durP1;ratioP1;P1;durP2;ratioP2;P2;SDS_P1;SDS_P2;PMS_P1;PMS_P2;Temp;Humidity;BMP_temperature;BMP_pressure;BME280_temperature;BME280_humidity;BME280_pressure;Samples;Min_cycle;Max_cycle;Signal;HPM_P1;HPM_P2
2021/12/10 00:00:28;;;;;;;55.15;29.60;;;4.40;99.90;;;;;;4997475;28;20096;-59
2021/12/10 00:02:55;;;;;;;54.42;28.40;;;4.40;99.90;;;;;;4979478;28;20046;-58
2021/12/10 00:05:27;;;;;;;56.65;27.45;;;4.40;99.90;;;;;;4996802;28;20053;-59
2021/12/10 00:07:55;;;;;;;48.27;26.47;;;4.40;99.90;;;;;;4999001;28;20050;-59
2021/12/10 00:10:26;;;;;;;47.28;25.45;;;4.40;99.90;;;;;;4986503;28;20475;-59
2021/12/10 00:12:53;;;;;;;49.00;26.70;;;4.40;99.90;;;;;;4981248;28;20424;-59
2021/12/10 00:15:22;;;;;;;50.60;27.08;;;4.40;99.90;;;;;;4986297;28;20579;-59
2021/12/10 00:17:49;;;;;;;54.85;28.10;;;4.40;99.90;;;;;;4997558;28;20049;-59
2021/12/10 00:20:18;;;;;;;48.45;26.65;;;4.40;99.90;;;;;;4992199;28;20543;-60
2021/12/10 00:22:52;;;;;;;47.38;25.45;;;4.40;99.90;;;;;;4971370;28;20042;-59
2021/12/10 00:25:21;;;;;;;48.17;24.65;;;4.40;99.90;;;;;;4989614;28;20054;-60
2021/12/10 00:27:51;;;;;;;47.72;24.90;;;4.40;99.90;;;;;;4996195;28;20160;-59
2021/12/10 00:30:24;;;;;;;43.70;23.00;;;4.40;99.90;;;;;;4979545;28;20069;-59
2021/12/10 00:33:13;;;;;;;45.97;23.92;;;4.40;99.90;;;;;;4996178;28;20052;-59
2021/12/10 00:35:41;;;;;;;44.40;22.67;;;4.40;99.90;;;;;;4978137;28;20056;-59
2021/12/10 00:38:08;;;;;;;43.60;23.90;;;4.40;99.90;;;;;;4996562;28;20243;-59
2021/12/10 00:40:35;;;;;;;43.17;22.52;;;4.40;99.90;;;;;;4966832;28;20085;-59
2021/12/10 00:43:02;;;;;;;41.55;22.98;;;4.40;99.90;;;;;;4994330;28;20046;-60
2021/12/10 00:45:28;;;;;;;44.30;23.38;;;4.40;99.90;;;;;;4996624;28;20457;-57
2021/12/10 00:47:55;;;;;;;46.22;23.60;;;4.50;99.90;;;;;;4996068;28;20050;-59
2021/12/10 00:50:26;;;;;;;43.08;23.23;;;4.40;99.90;;;;;;4977660;28;20064;-59
2021/12/10 00:52:53;;;;;;;39.00;23.00;;;4.50;99.90;;;;;;4996482;28;20045;-59
2021/12/10 00:55:21;;;;;;;46.33;23.67;;;4.40;99.90;;;;;;4993086;28;20448;-59
2021/12/10 00:57:47;;;;;;;39.63;23.20;;;4.50;99.90;;;;;;4991842;28;20561;-59
2021/12/10 01:00:21;;;;;;;43.45;22.77;;;4.40;99.90;;;;;;4996301;28;20042;-59
2021/12/10 01:02:47;;;;;;;44.55;22.55;;;4.50;99.90;;;;;;4996072;28;20724;-59
2021/12/10 01:05:14;;;;;;;41.35;22.55;;;4.40;99.90;;;;;;4984386;28;20054;-59
2021/12/10 01:07:42;;;;;;;40.30;23.02;;;4.40;99.90;;;;;;4970348;28;20056;-59
2021/12/10 01:10:15;;;;;;;42.78;21.67;;;4.40;99.90;;;;;;4995194;28;20132;-60
2021/12/10 01:12:46;;;;;;;41.40;22.20;;;4.50;99.90;;;;;;4984028;28;20490;-58
2021/12/10 01:26:23;;;;;;;35.27;20.13;;;4.50;99.90;;;;;;4980325;28;20434;-59
2021/12/10 01:28:57;;;;;;;41.53;20.60;;;4.50;99.90;;;;;;4996387;28;20103;-58
2021/12/10 01:31:23;;;;;;;37.40;20.73;;;4.50;99.90;;;;;;4969947;28;20054;-59
2021/12/10 01:33:52;;;;;;;46.83;21.50;;;4.50;99.90;;;;;;4978711;28;20072;-59
2021/12/10 01:36:18;;;;;;;41.70;21.92;;;4.50;99.90;;;;;;4978683;28;20049;-59
2021/12/10 01:38:48;;;;;;;48.95;21.85;;;4.50;99.90;;;;;;4996573;28;20033;-59
2021/12/10 01:41:17;;;;;;;46.10;21.70;;;4.50;99.90;;;;;;4996789;28;20108;-59
2021/12/10 01:43:44;;;;;;;38.85;21.88;;;4.50;99.90;;;;;;4995909;28;20152;-59
2021/12/10 01:46:14;;;;;;;41.75;20.73;;;4.50;99.90;;;;;;4985859;28;20114;-59
2021/12/10 01:48:44;;;;;;;42.95;21.02;;;4.50;99.90;;;;;;4985594;28;20054;-59
2021/12/10 01:51:17;;;;;;;36.95;20.35;;;4.50;99.90;;;;;;4996506;28;20053;-58
2021/12/10 01:53:47;;;;;;;43.03;20.90;;;4.50;99.90;;;;;;4993090;28;20262;-59
2021/12/10 01:56:21;;;;;;;38.58;19.30;;;4.50;99.90;;;;;;4995106;28;20057;-59
2021/12/10 01:58:50;;;;;;;39.03;19.95;;;4.50;99.90;;;;;;4997031;28;20069;-58
2021/12/10 02:01:24;;;;;;;36.33;19.02;;;4.50;99.90;;;;;;4974843;28;20533;-59
2021/12/10 02:03:53;;;;;;;32.10;18.23;;;4.50;99.90;;;;;;4995012;28;20050;-59
2021/12/10 02:06:20;;;;;;;35.22;17.95;;;4.50;99.90;;;;;;4992627;28;20049;-59
2021/12/10 02:08:46;;;;;;;36.65;17.60;;;4.50;99.90;;;;;;4980408;28;20088;-60
2021/12/10 02:11:14;;;;;;;35.80;17.08;;;4.50;99.90;;;;;;4991807;28;20064;-59
2021/12/10 02:13:41;;;;;;;29.25;15.18;;;4.60;99.90;;;;;;4975874;28;20173;-59
2021/12/10 02:16:08;;;;;;;25.48;13.63;;;4.50;99.90;;;;;;4976710;28;20108;-59
2021/12/10 02:18:34;;;;;;;26.90;13.45;;;4.50;99.90;;;;;;4991526;28;20050;-59
2021/12/10 02:21:03;;;;;;;29.85;13.60;;;4.40;99.90;;;;;;4977116;28;20096;-58
2021/12/10 02:23:38;;;;;;;26.92;14.00;;;4.50;99.90;;;;;;4979477;28;20162;-59
2021/12/10 02:26:10;;;;;;;25.40;14.55;;;4.40;99.90;;;;;;4992226;28;20058;-59
2021/12/10 02:28:37;;;;;;;28.55;14.57;;;4.40;99.90;;;;;;4980678;28;20104;-59
2021/12/10 02:31:04;;;;;;;30.65;15.43;;;4.40;99.90;;;;;;4975572;28;20046;-60
2021/12/10 02:33:30;;;;;;;36.17;14.18;;;4.40;99.90;;;;;;4992981;28;20096;-59
2021/12/10 02:35:56;;;;;;;30.30;16.27;;;4.40;99.90;;;;;;4993782;28;20046;-59
2021/12/10 02:38:22;;;;;;;30.75;16.38;;;4.40;99.90;;;;;;4995491;28;20167;-59
2021/12/10 02:40:50;;;;;;;31.55;15.88;;;4.40;99.90;;;;;;4994255;28;20049;-59
2021/12/10 02:43:20;;;;;;;31.92;17.15;;;4.30;99.90;;;;;;4994671;28;20045;-59
2021/12/10 02:45:51;;;;;;;29.25;16.25;;;4.40;99.90;;;;;;4995099;28;20501;-59
2021/12/10 02:48:17;;;;;;;31.83;15.35;;;4.30;99.90;;;;;;4996206;28;20042;-59
2021/12/10 02:50:44;;;;;;;34.00;16.15;;;4.30;99.90;;;;;;4992626;28;20055;-59
2021/12/10 02:53:11;;;;;;;30.60;15.25;;;4.30;99.90;;;;;;4961498;28;20520;-60
2021/12/10 02:55:37;;;;;;;27.20;15.32;;;4.30;99.90;;;;;;4994235;28;20042;-60
2021/12/10 02:58:11;;;;;;;24.80;14.38;;;4.30;99.90;;;;;;4993811;28;20461;-59
2021/12/10 03:00:53;;;;;;;32.30;14.02;;;4.30;99.90;;;;;;4992799;28;20175;-59
2021/12/10 03:03:20;;;;;;;27.67;14.13;;;4.30;99.90;;;;;;4975673;28;20480;-59
2021/12/10 03:05:45;;;;;;;22.40;14.25;;;4.30;99.90;;;;;;4993162;28;20152;-59
2021/12/10 03:08:12;;;;;;;32.50;14.98;;;4.30;99.90;;;;;;4994700;28;20077;-59
2021/12/10 03:10:39;;;;;;;31.38;15.35;;;4.30;99.90;;;;;;4995296;28;20038;-59
2021/12/10 03:13:08;;;;;;;32.50;15.15;;;4.30;99.90;;;;;;4996855;28;20049;-58
2021/12/10 03:15:35;;;;;;;30.10;15.77;;;4.30;99.90;;;;;;4999103;28;20516;-59
2021/12/10 03:18:04;;;;;;;35.40;15.85;;;4.30;99.90;;;;;;4998433;28;20050;-59
2021/12/10 03:20:31;;;;;;;30.80;14.57;;;4.30;99.90;;;;;;4977548;28;20042;-59
2021/12/10 03:22:59;;;;;;;32.33;15.43;;;4.30;99.90;;;;;;4963969;28;20485;-59
2021/12/10 03:25:26;;;;;;;30.27;16.35;;;4.30;99.90;;;;;;4996228;28;20057;-58
2021/12/10 03:27:52;;;;;;;34.75;15.65;;;4.30;99.90;;;;;;4997939;28;20065;-59
2021/12/10 03:30:28;;;;;;;28.35;15.25;;;4.30;99.90;;;;;;4980622;28;20090;-58
2021/12/10 03:32:55;;;;;;;31.98;16.73;;;4.30;99.90;;;;;;4984018;28;20145;-59
2021/12/10 03:35:32;;;;;;;29.67;16.73;;;4.20;99.90;;;;;;4997305;28;20046;-59
2021/12/10 03:38:00;;;;;;;33.63;17.90;;;4.30;99.90;;;;;;4980619;28;20053;-60
2021/12/10 03:40:26;;;;;;;36.42;16.63;;;4.30;99.90;;;;;;4994662;28;20038;-59
2021/12/10 03:42:58;;;;;;;32.00;17.58;;;4.30;99.90;;;;;;4996401;28;20109;-59
2021/12/10 03:45:29;;;;;;;28.17;16.58;;;4.30;99.90;;;;;;4996797;28;20397;-59
2021/12/10 03:47:55;;;;;;;30.33;16.55;;;4.30;99.90;;;;;;4999778;28;20528;-57
2021/12/10 03:50:26;;;;;;;35.45;17.48;;;4.20;99.90;;;;;;4994433;28;20060;-60
2021/12/10 03:52:52;;;;;;;30.73;16.65;;;4.20;99.90;;;;;;4995312;28;20564;-59
2021/12/10 03:55:18;;;;;;;31.08;16.08;;;4.20;99.90;;;;;;4963658;28;20066;-59
2021/12/10 03:57:45;;;;;;;30.98;16.40;;;4.20;99.90;;;;;;4994994;28;20417;-58
2021/12/10 04:00:11;;;;;;;31.27;15.93;;;4.20;99.90;;;;;;4981725;28;20047;-59
2021/12/10 04:02:37;;;;;;;32.92;15.82;;;4.20;99.90;;;;;;4982411;28;20045;-59
2021/12/10 04:05:03;;;;;;;28.20;16.15;;;4.20;99.90;;;;;;4985297;28;20381;-59
2021/12/10 04:07:29;;;;;;;32.20;15.82;;;4.20;99.90;;;;;;4985854;28;20054;-58
2021/12/10 04:09:56;;;;;;;27.85;15.85;;;4.20;99.90;;;;;;4995934;28;20042;-59
2021/12/10 04:12:22;;;;;;;30.77;16.23;;;4.20;99.90;;;;;;4979164;28;20057;-60
2021/12/10 04:14:50;;;;;;;27.52;15.85;;;4.20;99.90;;;;;;4983756;28;20042;-59
2021/12/10 04:17:19;;;;;;;33.58;15.38;;;4.20;99.90;;;;;;4995979;28;20085;-59
2021/12/10 04:19:45;;;;;;;35.30;16.42;;;4.20;99.90;;;;;;4977789;28;20048;-59
2021/12/10 04:22:12;;;;;;;32.67;17.38;;;4.20;99.90;;;;;;4976448;28;20117;-59
2021/12/10 04:24:41;;;;;;;26.70;16.40;;;4.20;99.90;;;;;;4968052;28;20042;-59
2021/12/10 04:27:09;;;;;;;29.85;16.92;;;4.20;99.90;;;;;;4995051;28;20042;-59
2021/12/10 04:29:36;;;;;;;35.30;17.02;;;4.20;99.90;;;;;;4978150;28;20061;-57
2021/12/10 04:32:04;;;;;;;30.90;17.83;;;4.20;99.90;;;;;;4995789;28;20050;-59
2021/12/10 04:34:30;;;;;;;35.38;18.33;;;4.20;99.90;;;;;;4952001;28;20511;-60
2021/12/10 04:36:59;;;;;;;34.50;18.75;;;4.20;99.90;;;;;;4995120;28;20092;-59
2021/12/10 04:39:27;;;;;;;32.67;18.48;;;4.20;99.90;;;;;;4993924;28;20050;-59
2021/12/10 04:41:53;;;;;;;36.67;19.08;;;4.10;99.90;;;;;;4995097;28;20084;-59
2021/12/10 04:44:19;;;;;;;42.92;20.63;;;4.20;99.90;;;;;;4978543;28;20069;-59
2021/12/10 04:46:45;;;;;;;29.17;19.50;;;4.10;99.90;;;;;;4997033;28;20030;-59
2021/12/10 04:49:14;;;;;;;33.60;20.85;;;4.10;99.90;;;;;;4993918;28;20080;-60
2021/12/10 04:51:48;;;;;;;32.72;19.38;;;4.10;99.90;;;;;;4983164;28;20722;-59
2021/12/10 04:54:15;;;;;;;27.88;18.77;;;4.00;99.90;;;;;;4996205;28;20038;-59
2021/12/10 04:56:41;;;;;;;33.47;20.23;;;4.00;99.90;;;;;;4996278;28;20038;-59
2021/12/10 04:59:10;;;;;;;31.75;20.38;;;4.00;99.90;;;;;;4979108;28;20050;-59
2021/12/10 05:01:38;;;;;;;34.78;21.38;;;3.90;99.90;;;;;;4995474;28;20060;-59
2021/12/10 05:04:07;;;;;;;35.70;21.17;;;3.90;99.90;;;;;;4977350;28;20046;-59
2021/12/10 05:06:34;;;;;;;36.60;23.00;;;3.90;99.90;;;;;;4994848;28;20085;-59
2021/12/10 05:09:00;;;;;;;35.28;22.45;;;3.80;99.90;;;;;;4965268;28;20507;-59
2021/12/10 05:11:26;;;;;;;35.97;22.08;;;3.80;99.90;;;;;;4995803;28;20124;-59
2021/12/10 05:13:52;;;;;;;35.78;22.38;;;3.80;99.90;;;;;;4993557;28;20054;-60
2021/12/10 05:16:24;;;;;;;32.05;21.02;;;3.70;99.90;;;;;;4995042;28;20046;-59
2021/12/10 05:18:56;;;;;;;33.38;20.73;;;3.70;99.90;;;;;;4961796;28;20058;-60
2021/12/10 05:21:23;;;;;;;32.78;20.38;;;3.70;99.90;;;;;;4976621;28;20088;-59
2021/12/10 05:23:49;;;;;;;28.40;19.02;;;3.60;99.90;;;;;;4994567;28;20115;-59
2021/12/10 05:26:15;;;;;;;31.58;19.90;;;3.60;99.90;;;;;;4995354;28;20073;-60
2021/12/10 05:28:41;;;;;;;28.40;19.23;;;3.60;99.90;;;;;;4994488;28;20501;-59
2021/12/10 05:31:07;;;;;;;35.28;20.27;;;3.60;99.90;;;;;;4965112;28;20057;-59
2021/12/10 05:33:34;;;;;;;30.25;19.98;;;3.60;99.90;;;;;;4993277;28;20136;-59
2021/12/10 05:36:01;;;;;;;37.00;20.48;;;3.50;99.90;;;;;;4980019;28;20089;-59
2021/12/10 05:38:28;;;;;;;30.98;21.05;;;3.50;99.90;;;;;;4995274;28;20042;-59
2021/12/10 05:40:55;;;;;;;35.10;20.25;;;3.50;99.90;;;;;;4994797;28;20046;-59
2021/12/10 05:43:21;;;;;;;34.85;20.38;;;3.50;99.90;;;;;;4995349;28;20371;-59
2021/12/10 05:45:48;;;;;;;32.75;19.30;;;3.50;99.90;;;;;;4993065;28;20046;-58
2021/12/10 05:48:14;;;;;;;37.58;19.83;;;3.40;99.90;;;;;;4994828;28;20081;-59
2021/12/10 05:50:41;;;;;;;32.63;20.45;;;3.40;99.90;;;;;;4994491;28;20050;-59
2021/12/10 05:53:07;;;;;;;33.10;20.20;;;3.40;99.90;;;;;;4994692;28;20046;-59
2021/12/10 05:55:34;;;;;;;31.77;20.20;;;3.40;99.90;;;;;;4992978;28;20084;-59
2021/12/10 05:58:00;;;;;;;33.50;20.48;;;3.40;99.90;;;;;;4995462;28;20455;-60
2021/12/10 06:00:30;;;;;;;35.53;20.40;;;3.40;99.90;;;;;;4975896;28;20057;-59
2021/12/10 06:02:58;;;;;;;34.80;21.73;;;3.40;99.90;;;;;;4994014;28;20046;-58
2021/12/10 06:05:24;;;;;;;32.58;21.65;;;3.40;99.90;;;;;;4993585;28;20117;-59
2021/12/10 06:07:50;;;;;;;39.80;22.33;;;3.30;99.90;;;;;;4993562;28;20115;-59
2021/12/10 06:10:18;;;;;;;37.22;21.52;;;3.30;99.90;;;;;;4992996;28;20050;-59
2021/12/10 06:12:46;;;;;;;33.50;21.08;;;3.30;99.90;;;;;;4994884;28;20081;-60
2021/12/10 06:15:13;;;;;;;34.15;22.10;;;3.30;99.90;;;;;;4993629;28;20049;-59
2021/12/10 06:17:40;;;;;;;38.35;23.38;;;3.30;99.90;;;;;;4982145;28;20159;-59
2021/12/10 06:20:08;;;;;;;34.00;21.75;;;3.30;99.90;;;;;;4976883;28;20077;-59
2021/12/10 06:22:34;;;;;;;35.97;22.13;;;3.20;99.90;;;;;;4993328;28;20101;-58
2021/12/10 06:25:00;;;;;;;34.20;21.60;;;3.20;99.90;;;;;;4994852;28;20045;-59
2021/12/10 06:27:25;;;;;;;33.95;21.83;;;3.20;99.90;;;;;;4995768;28;20589;-58
2021/12/10 06:29:51;;;;;;;37.03;21.70;;;3.20;99.90;;;;;;4974613;28;20236;-59
2021/12/10 06:32:17;;;;;;;33.35;21.15;;;3.20;99.90;;;;;;4992535;28;20042;-59
2021/12/10 06:34:43;;;;;;;37.00;21.33;;;3.20;99.90;;;;;;4975051;28;20157;-59
2021/12/10 06:37:09;;;;;;;33.90;22.15;;;3.20;99.90;;;;;;4994317;28;20502;-59
2021/12/10 06:39:35;;;;;;;34.28;22.25;;;3.10;99.90;;;;;;4992255;28;20050;-59
2021/12/10 06:42:02;;;;;;;36.40;23.80;;;3.10;99.90;;;;;;4994629;28;20478;-59
2021/12/10 06:44:28;;;;;;;33.30;21.92;;;3.10;99.90;;;;;;4981708;28;20042;-59
2021/12/10 06:46:54;;;;;;;36.85;22.70;;;3.10;99.90;;;;;;4994536;28;20046;-59
2021/12/10 06:49:20;;;;;;;41.95;23.00;;;3.00;99.90;;;;;;4997895;28;20056;-60
2021/12/10 06:51:46;;;;;;;35.33;22.42;;;3.00;99.90;;;;;;4980950;28;20054;-59
2021/12/10 06:54:12;;;;;;;35.65;21.98;;;3.00;99.90;;;;;;4981453;28;20054;-59
2021/12/10 06:56:38;;;;;;;32.38;21.83;;;3.00;99.90;;;;;;4977633;28;20097;-59
2021/12/10 06:59:06;;;;;;;34.50;22.20;;;3.00;99.90;;;;;;4977831;28;20054;-59
2021/12/10 07:01:36;;;;;;;31.98;21.55;;;3.00;99.90;;;;;;4998829;28;20046;-59
2021/12/10 07:04:04;;;;;;;30.90;20.67;;;3.00;99.90;;;;;;4963200;28;20050;-59
2021/12/10 07:06:31;;;;;;;29.27;19.95;;;3.00;99.90;;;;;;4967472;28;20042;-60
2021/12/10 07:09:00;;;;;;;30.08;18.92;;;3.00;99.90;;;;;;4997241;28;20551;-59
2021/12/10 07:11:27;;;;;;;29.02;18.70;;;3.00;99.90;;;;;;4979039;28;20463;-59
2021/12/10 07:13:56;;;;;;;32.42;19.10;;;2.90;99.90;;;;;;4963335;28;20148;-59
2021/12/10 07:16:24;;;;;;;27.98;16.42;;;3.00;99.90;;;;;;4997772;28;20046;-59
2021/12/10 07:18:53;;;;;;;26.27;16.48;;;2.90;99.90;;;;;;4970377;28;20370;-59
2021/12/10 07:21:20;;;;;;;27.58;16.92;;;2.90;99.90;;;;;;4981282;28;20043;-58
2021/12/10 07:23:46;;;;;;;27.33;16.90;;;2.90;99.90;;;;;;4983736;28;20043;-59
2021/12/10 07:26:13;;;;;;;27.27;16.77;;;2.90;99.90;;;;;;4980696;28;20115;-59
2021/12/10 07:28:40;;;;;;;28.95;16.15;;;2.90;99.90;;;;;;4997218;28;20062;-59
2021/12/10 07:31:08;;;;;;;29.25;17.75;;;2.80;99.90;;;;;;4980357;28;20385;-59
2021/12/10 07:33:34;;;;;;;27.30;17.05;;;2.90;99.90;;;;;;4981302;28;20476;-59
2021/12/10 07:36:03;;;;;;;25.55;16.73;;;2.80;99.90;;;;;;4982796;28;20053;-59
2021/12/10 07:38:29;;;;;;;29.08;17.20;;;2.80;99.90;;;;;;4981473;28;20057;-60
2021/12/10 07:40:55;;;;;;;23.90;16.45;;;2.80;99.90;;;;;;4996032;28;20046;-59
2021/12/10 07:43:21;;;;;;;26.33;16.30;;;2.70;99.90;;;;;;4995874;28;20046;-59
2021/12/10 07:45:49;;;;;;;27.38;16.25;;;2.70;99.90;;;;;;4981108;28;20085;-59
2021/12/10 07:48:19;;;;;;;30.15;16.88;;;2.70;99.90;;;;;;4997056;28;20045;-58
2021/12/10 07:50:54;;;;;;;24.02;15.38;;;2.60;99.90;;;;;;4994860;28;20054;-59
2021/12/10 07:53:21;;;;;;;22.40;15.45;;;2.60;99.90;;;;;;4986678;28;20041;-59
2021/12/10 07:55:49;;;;;;;24.55;14.98;;;2.60;99.90;;;;;;4977634;28;20404;-59
2021/12/10 07:58:15;;;;;;;22.15;15.05;;;2.60;99.90;;;;;;4994055;28;20119;-59
2021/12/10 08:00:43;;;;;;;23.75;14.80;;;2.60;99.90;;;;;;4976661;28;20210;-59
2021/12/10 08:03:09;;;;;;;22.27;14.32;;;2.60;99.90;;;;;;4980415;28;20060;-59
2021/12/10 08:05:38;;;;;;;21.80;14.07;;;2.50;99.90;;;;;;4986834;28;20529;-59
2021/12/10 08:08:08;;;;;;;20.10;14.13;;;2.50;99.90;;;;;;4985471;28;20088;-59
2021/12/10 08:10:36;;;;;;;25.38;14.27;;;2.50;99.90;;;;;;4996448;28;20045;-59
2021/12/10 08:13:02;;;;;;;22.00;14.00;;;2.50;99.90;;;;;;4997378;28;20046;-58
2021/12/10 08:15:27;;;;;;;21.00;13.82;;;2.50;99.90;;;;;;4994060;28;20042;-59
2021/12/10 08:17:54;;;;;;;20.20;12.73;;;2.50;99.90;;;;;;4995195;28;20088;-59
2021/12/10 08:20:23;;;;;;;20.33;13.65;;;2.50;99.90;;;;;;4996106;28;20435;-60
2021/12/10 08:22:50;;;;;;;25.42;14.05;;;2.50;99.90;;;;;;4968636;28;20058;-60
2021/12/10 08:25:18;;;;;;;20.25;13.73;;;2.50;99.90;;;;;;4985426;28;20057;-58
2021/12/10 08:27:44;;;;;;;20.13;12.82;;;2.50;99.90;;;;;;4995289;28;20061;-59
2021/12/10 08:30:14;;;;;;;22.13;13.00;;;2.50;99.90;;;;;;4996564;28;20079;-59
2021/12/10 08:32:41;;;;;;;19.73;12.55;;;2.50;99.90;;;;;;4994289;28;20082;-59
2021/12/10 08:35:10;;;;;;;22.13;12.88;;;2.60;99.90;;;;;;4979271;28;20100;-60
2021/12/10 08:37:36;;;;;;;19.05;13.00;;;2.50;99.90;;;;;;4996836;28;20043;-59
2021/12/10 08:40:04;;;;;;;21.05;12.80;;;2.50;99.90;;;;;;4996268;28;20061;-60
2021/12/10 08:42:30;;;;;;;20.02;12.60;;;2.50;99.90;;;;;;4995719;28;20473;-59
2021/12/10 08:44:56;;;;;;;22.75;12.57;;;2.50;99.90;;;;;;4976998;28;20045;-59
2021/12/10 08:47:22;;;;;;;21.10;12.40;;;2.50;99.90;;;;;;4994935;28;20092;-59
2021/12/10 08:49:48;;;;;;;20.67;11.00;;;2.60;99.90;;;;;;4993451;28;20054;-59
2021/12/10 08:52:15;;;;;;;20.50;12.15;;;2.60;99.90;;;;;;4984725;28;20054;-59
2021/12/10 08:54:42;;;;;;;19.13;12.48;;;2.60;99.90;;;;;;4995299;28;20058;-59
2021/12/10 08:57:08;;;;;;;19.58;12.00;;;2.60;99.90;;;;;;4984106;28;20045;-59
2021/12/10 08:59:36;;;;;;;18.73;11.30;;;2.60;99.90;;;;;;4975899;28;20129;-59
2021/12/10 09:02:04;;;;;;;16.63;11.43;;;2.60;99.90;;;;;;4994322;28;20539;-60
2021/12/10 09:04:32;;;;;;;19.20;11.70;;;2.60;99.90;;;;;;4978941;28;20164;-59
2021/12/10 09:07:06;;;;;;;18.65;11.02;;;2.70;99.90;;;;;;4979017;28;20061;-59
2021/12/10 09:09:37;;;;;;;14.70;10.15;;;2.70;99.90;;;;;;4978216;28;20818;-59
2021/12/10 09:12:07;;;;;;;19.00;10.52;;;2.70;99.90;;;;;;4963978;28;20065;-59
2021/12/10 09:14:40;;;;;;;17.95;10.77;;;2.70;99.90;;;;;;4996396;28;20504;-59
2021/12/10 09:17:11;;;;;;;17.05;11.25;;;2.70;99.90;;;;;;4981285;28;20049;-59
2021/12/10 09:19:40;;;;;;;19.33;10.50;;;2.80;99.90;;;;;;4994041;28;20062;-59
2021/12/10 09:22:07;;;;;;;17.27;10.63;;;2.80;99.90;;;;;;4996381;28;20507;-59
2021/12/10 09:24:35;;;;;;;15.38;10.00;;;2.80;99.90;;;;;;4978067;28;20077;-59
2021/12/10 09:27:01;;;;;;;17.13;9.98;;;2.80;99.90;;;;;;4983531;28;20050;-59
2021/12/10 09:29:32;;;;;;;19.27;10.05;;;2.90;99.90;;;;;;4981598;28;20375;-59
2021/12/10 09:31:58;;;;;;;18.40;10.52;;;2.90;99.90;;;;;;4994853;28;20050;-59
2021/12/10 09:34:24;;;;;;;15.20;9.60;;;3.00;99.90;;;;;;4970931;28;20053;-60
2021/12/10 09:36:51;;;;;;;18.20;10.10;;;3.00;99.90;;;;;;4961406;28;20068;-59
2021/12/10 09:39:18;;;;;;;13.05;8.80;;;3.10;99.90;;;;;;4984347;28;20419;-59
2021/12/10 09:41:45;;;;;;;17.77;9.27;;;3.10;99.90;;;;;;4977960;28;20182;-59
2021/12/10 09:44:11;;;;;;;17.27;9.32;;;3.10;99.90;;;;;;4976328;28;20041;-59
2021/12/10 09:46:38;;;;;;;18.98;10.35;;;3.10;99.90;;;;;;4977538;28;20049;-60
2021/12/10 09:49:07;;;;;;;15.90;9.55;;;3.20;99.90;;;;;;4978330;28;20056;-59
2021/12/10 09:51:43;;;;;;;17.83;9.63;;;3.20;99.90;;;;;;4979046;28;20578;-59
2021/12/10 09:54:12;;;;;;;16.35;9.25;;;3.30;99.90;;;;;;4978822;28;20181;-59
2021/12/10 09:56:48;;;;;;;15.63;9.05;;;3.30;99.90;;;;;;4981209;28;20140;-59
2021/12/10 09:59:16;;;;;;;17.00;9.68;;;3.40;99.90;;;;;;4995921;28;20054;-59
2021/12/10 10:01:45;;;;;;;17.17;9.15;;;3.50;99.90;;;;;;4995761;28;20050;-60
2021/12/10 10:04:14;;;;;;;15.88;9.48;;;3.50;99.90;;;;;;4994579;28;20065;-59
2021/12/10 10:06:44;;;;;;;17.48;9.98;;;3.60;99.90;;;;;;4995152;28;20061;-59
2021/12/10 10:09:13;;;;;;;17.05;10.88;;;3.70;99.90;;;;;;4992390;28;20691;-60
2021/12/10 10:11:39;;;;;;;13.38;9.32;;;3.80;99.90;;;;;;4994729;28;20050;-57
2021/12/10 10:14:06;;;;;;;17.27;9.77;;;4.00;99.90;;;;;;4981345;28;20045;-59
2021/12/10 10:16:34;;;;;;;14.00;9.48;;;4.00;99.90;;;;;;4977415;28;20580;-59
2021/12/10 10:19:02;;;;;;;19.85;9.68;;;4.20;99.90;;;;;;4977079;28;20157;-59
2021/12/10 10:21:36;;;;;;;15.18;9.25;;;4.30;99.90;;;;;;4995233;28;20100;-59
2021/12/10 10:24:03;;;;;;;15.13;9.63;;;4.40;99.90;;;;;;4995767;28;20046;-59
2021/12/10 10:26:33;;;;;;;14.68;9.50;;;4.50;99.90;;;;;;4996063;28;20049;-59
2021/12/10 10:29:09;;;;;;;14.23;9.55;;;4.50;99.90;;;;;;4994161;28;20433;-58
2021/12/10 10:31:38;;;;;;;15.32;9.35;;;4.60;99.90;;;;;;4980398;28;20072;-59
2021/12/10 10:34:05;;;;;;;12.10;8.85;;;4.70;99.90;;;;;;4974762;28;20508;-59
2021/12/10 10:36:34;;;;;;;14.73;9.10;;;4.80;99.90;;;;;;4994066;28;20129;-59
2021/12/10 10:39:11;;;;;;;12.43;8.45;;;5.00;99.90;;;;;;4967159;28;20042;-59
2021/12/10 10:41:38;;;;;;;13.88;8.15;;;5.00;99.90;;;;;;4983413;28;20057;-59
2021/12/10 10:44:05;;;;;;;11.90;7.88;;;5.10;99.90;;;;;;4995040;28;20046;-59
2021/12/10 10:46:33;;;;;;;13.68;7.88;;;5.20;99.90;;;;;;4976236;28;20141;-60
2021/12/10 10:48:59;;;;;;;14.27;8.20;;;5.20;99.90;;;;;;4978703;28;20073;-59
2021/12/10 10:51:27;;;;;;;16.05;8.35;;;5.30;99.90;;;;;;4976562;28;20471;-59
2021/12/10 10:53:54;;;;;;;17.30;8.48;;;5.30;99.90;;;;;;4984364;28;20081;-59
2021/12/10 10:56:33;;;;;;;11.65;8.00;;;5.30;99.90;;;;;;4978526;28;20053;-59
2021/12/10 10:59:10;;;;;;;10.20;7.78;;;5.50;99.90;;;;;;4995730;28;20051;-59
2021/12/10 11:01:48;;;;;;;12.65;7.47;;;5.50;99.90;;;;;;4969209;28;20078;-59
2021/12/10 11:04:26;;;;;;;11.55;6.88;;;5.50;99.90;;;;;;4982710;28;20070;-59
2021/12/10 11:07:05;;;;;;;10.27;7.15;;;5.60;99.90;;;;;;4982625;28;20061;-59
2021/12/10 11:09:33;;;;;;;12.25;6.75;;;5.60;99.90;;;;;;4992456;28;20741;-60
2021/12/10 11:12:05;;;;;;;18.02;7.30;;;5.70;99.90;;;;;;4994433;28;20050;-59
2021/12/10 11:14:36;;;;;;;13.95;6.97;;;5.60;99.90;;;;;;4976403;28;20053;-59
2021/12/10 11:17:31;;;;;;;19.20;7.82;;;5.70;99.90;;;;;;4982409;28;20046;-59
2021/12/10 11:20:18;;;;;;;11.80;6.57;;;5.60;99.90;;;;;;4993415;28;20042;-59
2021/12/10 11:22:47;;;;;;;9.48;6.50;;;5.50;99.90;;;;;;4996428;28;20042;-59
2021/12/10 11:25:18;;;;;;;9.15;6.47;;;5.40;99.90;;;;;;4995774;28;20042;-60
2021/12/10 11:27:45;;;;;;;13.32;7.00;;;5.40;99.90;;;;;;4994858;28;20409;-60
2021/12/10 11:30:25;;;;;;;10.70;6.57;;;5.30;99.90;;;;;;4976005;28;20060;-59
2021/12/10 11:33:00;;;;;;;9.52;6.43;;;5.30;99.90;;;;;;4995229;28;20092;-60
2021/12/10 11:35:32;;;;;;;9.07;6.13;;;5.30;99.90;;;;;;4994883;28;20038;-60
2021/12/10 11:38:06;;;;;;;13.40;6.50;;;5.20;99.90;;;;;;4983011;28;20260;-58
2021/12/10 11:40:49;;;;;;;9.75;6.60;;;5.20;99.90;;;;;;4969324;28;20062;-59
2021/12/10 11:46:27;;;;;;;16.80;6.72;;;5.20;99.90;;;;;;4988869;28;20045;-59
2021/12/10 11:49:12;;;;;;;8.98;6.50;;;5.10;99.90;;;;;;4983775;28;20064;-59
2021/12/10 11:51:46;;;;;;;12.02;6.55;;;5.10;99.90;;;;;;4996225;28;20100;-60
2021/12/10 11:54:37;;;;;;;11.07;6.40;;;5.00;99.90;;;;;;4985534;28;20065;-60
2021/12/10 11:57:09;;;;;;;9.60;6.47;;;5.00;99.90;;;;;;4986945;28;20080;-62
2021/12/10 11:59:46;;;;;;;8.77;6.50;;;5.00;99.90;;;;;;4981574;28;20181;-61
2021/12/10 12:02:19;;;;;;;8.98;6.35;;;5.00;99.90;;;;;;4985678;28;20046;-64
2021/12/10 12:04:49;;;;;;;12.40;6.10;;;5.00;99.90;;;;;;4984205;28;20049;-63
2021/12/10 12:07:29;;;;;;;11.52;6.03;;;4.90;99.90;;;;;;4996736;28;20060;-62
2021/12/10 12:10:20;;;;;;;10.35;5.82;;;4.90;99.90;;;;;;4983872;28;20476;-62
2021/12/10 12:12:55;;;;;;;10.82;6.07;;;4.90;99.90;;;;;;4994541;28;20082;-62
2021/12/10 12:15:32;;;;;;;7.70;5.10;;;4.90;99.90;;;;;;4986935;28;20485;-63
2021/12/10 12:18:24;;;;;;;8.65;5.63;;;4.90;99.90;;;;;;4981187;28;20042;-62
2021/12/10 12:20:53;;;;;;;8.55;5.32;;;4.90;99.90;;;;;;4980231;28;20046;-60
2021/12/10 12:26:28;;;;;;;11.73;5.63;;;4.90;99.90;;;;;;4987810;28;20050;-63
2021/12/10 12:28:57;;;;;;;10.57;5.75;;;4.90;99.90;;;;;;4984617;28;20660;-63
2021/12/10 12:31:32;;;;;;;12.13;5.20;;;4.90;99.90;;;;;;4979774;28;20054;-63
2021/12/10 12:34:06;;;;;;;8.27;5.70;;;4.90;99.90;;;;;;4982816;28;20457;-63
2021/12/10 12:37:01;;;;;;;8.98;5.50;;;4.90;99.90;;;;;;4984365;28;20056;-65
2021/12/10 12:39:31;;;;;;;7.07;5.15;;;4.90;99.90;;;;;;4970955;28;20050;-66
2021/12/10 12:42:01;;;;;;;10.40;5.50;;;4.90;99.90;;;;;;4985412;28;20398;-63
2021/12/10 12:44:39;;;;;;;9.63;5.55;;;4.90;99.90;;;;;;4980684;28;20049;-60
2021/12/10 12:47:21;;;;;;;11.00;6.03;;;5.00;99.90;;;;;;4981838;28;20081;-60
2021/12/10 12:49:47;;;;;;;11.13;6.17;;;4.90;99.90;;;;;;4975212;28;20105;-60
2021/12/10 12:52:17;;;;;;;9.68;6.22;;;5.00;99.90;;;;;;4959207;28;20050;-60
2021/12/10 12:55:01;;;;;;;7.78;6.03;;;5.00;99.90;;;;;;4981115;28;20050;-60
2021/12/10 12:57:41;;;;;;;11.20;6.80;;;5.00;99.90;;;;;;4992905;28;20113;-60
2021/12/10 13:00:14;;;;;;;15.02;5.93;;;5.10;99.90;;;;;;4980181;28;20053;-60
2021/12/10 13:02:40;;;;;;;10.93;6.07;;;5.10;99.90;;;;;;4996644;28;20078;-60
2021/12/10 13:05:09;;;;;;;10.45;6.20;;;5.10;99.90;;;;;;4968911;28;20054;-61
2021/12/10 13:07:36;;;;;;;11.80;6.65;;;5.20;99.90;;;;;;4996685;28;20056;-60